sensor_id;sensor_type;location;lat;lon;timestamp;pressure;altitude;pressure_sealevel;temperature;humidity
5350;BME280;2697;42.144;24.794;2023-12-07T00:01:43;12303.91;;;5.94;100.00
5350;BME280;2697;42.144;24.794;2023-12-07T00:04:08;11971.41;;;6.02;100.00
5350;BME280;2697;42.144;24.794;2023-12-07T00:06:34;12638.19;;;5.95;100.00
5350;BME280;2697;42.144;24.794;2023-12-07T00:08:59;12638.75;;;5.98;100.00
5350;BME280;2697;42.144;24.794;2023-12-07T00:11:26;12641.16;;;6.09;100.00
5350;BME280;2697;42.144;24.794;2023-12-07T00:13:51;13306.88;;;5.97;100.00
5350;BME280;2697;42.144;24.794;2023-12-07T00:16:17;12972.84;;;5.98;100.00
5350;BME280;2697;42.144;24.794;2023-12-07T00:18:42;12639.56;;;6.02;100.00
5350;BME280;2697;42.144;24.794;2023-12-07T00:21:08;12975.19;;;6.08;100.00
5350;BME280;2697;42.144;24.794;2023-12-07T00:23:34;13643.84;;;6.09;100.00
5350;BME280;2697;42.144;24.794;2023-12-07T00:25:59;14640.53;;;5.85;100.00
5350;BME280;2697;42.144;24.794;2023-12-07T00:28:25;14305.44;;;5.82;100.00
5350;BME280;2697;42.144;24.794;2023-12-07T00:30:50;14973.41;;;5.80;100.00
5350;BME280;2697;42.144;24.794;2023-12-07T00:33:15;14976.59;;;5.92;100.00
5350;BME280;2697;42.144;24.794;2023-12-07T00:35:42;15644.91;;;5.91;100.00
5350;BME280;2697;42.144;24.794;2023-12-07T00:38:08;16314.03;;;5.93;100.00
5350;BME280;2697;42.144;24.794;2023-12-07T00:40:34;16984.34;;;5.98;100.00
5350;BME280;2697;42.144;24.794;2023-12-07T00:43:02;17652.84;;;5.96;100.00
5350;BME280;2697;42.144;24.794;2023-12-07T00:45:27;17988.34;;;5.99;100.00
5350;BME280;2697;42.144;24.794;2023-12-07T00:47:53;18320.81;;;5.93;100.00
5350;BME280;2697;42.144;24.794;2023-12-07T00:50:18;18320.81;;;5.93;100.00
5350;BME280;2697;42.144;24.794;2023-12-07T00:52:43;17983.56;;;5.84;100.00
5350;BME280;2697;42.144;24.794;2023-12-07T00:55:09;17649.56;;;5.86;100.00
5350;BME280;2697;42.144;24.794;2023-12-07T00:57:34;16318.38;;;6.08;100.00
5350;BME280;2697;42.144;24.794;2023-12-07T00:59:59;16988.84;;;6.13;100.00
5350;BME280;2697;42.144;24.794;2023-12-07T01:02:25;15988.91;;;6.26;100.00
5350;BME280;2697;42.144;24.794;2023-12-07T01:04:50;15986.47;;;6.17;100.00
5350;BME280;2697;42.144;24.794;2023-12-07T01:07:16;14986.63;;;6.31;100.00
5350;BME280;2697;42.144;24.794;2023-12-07T01:09:41;14649.31;;;6.19;100.00
5350;BME280;2697;42.144;24.794;2023-12-07T01:12:07;13981.22;;;6.22;100.00
5350;BME280;2697;42.144;24.794;2023-12-07T01:14:32;13643.47;;;6.08;100.00
5350;BME280;2697;42.144;24.794;2023-12-07T01:16:57;12312.59;;;6.34;100.00
5350;BME280;2697;42.144;24.794;2023-12-07T01:19:23;14316.34;;;6.25;100.00
5350;BME280;2697;42.144;24.794;2023-12-07T01:21:50;14979.28;;;6.03;100.00
5350;BME280;2697;42.144;24.794;2023-12-07T01:24:15;14975.41;;;5.88;100.00
5350;BME280;2697;42.144;24.794;2023-12-07T01:26:41;13972.47;;;5.86;100.00
5350;BME280;2697;42.144;24.794;2023-12-07T01:29:06;12969.00;;;5.81;100.00
5350;BME280;2697;42.144;24.794;2023-12-07T01:31:31;11969.44;;;5.92;100.00
5350;BME280;2697;42.144;24.794;2023-12-07T01:33:57;11637.16;;;6.00;100.00
5350;BME280;2697;42.144;24.794;2023-12-07T01:36:22;12302.78;;;5.89;100.00
5350;BME280;2697;42.144;24.794;2023-12-07T01:38:48;12304.13;;;5.95;100.00
5350;BME280;2697;42.144;24.794;2023-12-07T01:41:13;12970.97;;;5.90;100.00
5350;BME280;2697;42.144;24.794;2023-12-07T01:43:44;13635.25;;;5.73;100.00
5350;BME280;2697;42.144;24.794;2023-12-07T01:46:10;13299.91;;;5.68;100.00
5350;BME280;2697;42.144;24.794;2023-12-07T01:48:36;12963.63;;;5.58;100.00
5350;BME280;2697;42.144;24.794;2023-12-07T01:51:01;12296.53;;;5.61;100.00
5350;BME280;2697;42.144;24.794;2023-12-07T01:53:28;12296.31;;;5.60;100.00
5350;BME280;2697;42.144;24.794;2023-12-07T01:55:54;11963.34;;;5.64;100.00
5350;BME280;2697;42.144;24.794;2023-12-07T01:58:20;11630.78;;;5.70;100.00
5350;BME280;2697;42.144;24.794;2023-12-07T02:00:46;11631.22;;;5.72;100.00
5350;BME280;2697;42.144;24.794;2023-12-07T02:03:13;11632.28;;;5.77;100.00
5350;BME280;2697;42.144;24.794;2023-12-07T02:05:43;12298.09;;;5.68;100.00
5350;BME280;2697;42.144;24.794;2023-12-07T02:08:11;12631.31;;;5.65;100.00
5350;BME280;2697;42.144;24.794;2023-12-07T02:10:37;12629.97;;;5.59;100.00
5350;BME280;2697;42.144;24.794;2023-12-07T02:13:02;11964.34;;;5.68;100.00
5350;BME280;2697;42.144;24.794;2023-12-07T02:15:29;12630.41;;;5.61;100.00
5350;BME280;2697;42.144;24.794;2023-12-07T02:18:10;12958.72;;;5.36;100.00
5350;BME280;2697;42.144;24.794;2023-12-07T02:21:01;11627.19;;;5.53;100.00
5350;BME280;2697;42.144;24.794;2023-12-07T02:23:32;11626.34;;;5.49;100.00
5350;BME280;2697;42.144;24.794;2023-12-07T02:28:46;12959.66;;;5.40;100.00
5350;BME280;2697;42.144;24.794;2023-12-07T02:31:11;12626.88;;;5.45;100.00
5350;BME280;2697;42.144;24.794;2023-12-07T02:33:37;11960.53;;;5.51;100.00
5350;BME280;2697;42.144;24.794;2023-12-07T02:36:02;11957.81;;;5.38;100.00
5350;BME280;2697;42.144;24.794;2023-12-07T02:38:28;10957.34;;;5.40;100.00
5350;BME280;2697;42.144;24.794;2023-12-07T02:40:54;10630.25;;;5.75;100.00
5350;BME280;2697;42.144;24.794;2023-12-07T02:43:21;13293.22;;;5.39;100.00
5350;BME280;2697;42.144;24.794;2023-12-07T02:45:48;12958.25;;;5.34;100.00
5350;BME280;2697;42.144;24.794;2023-12-07T02:48:13;11960.53;;;5.51;100.00
5350;BME280;2697;42.144;24.794;2023-12-07T02:50:38;13962.31;;;5.45;100.00
5350;BME280;2697;42.144;24.794;2023-12-07T02:53:04;15295.34;;;5.34;100.00
5350;BME280;2697;42.144;24.794;2023-12-07T02:55:29;16291.59;;;5.14;100.00
5350;BME280;2697;42.144;24.794;2023-12-07T02:57:54;14296.38;;;5.46;100.00
5350;BME280;2697;42.144;24.794;2023-12-07T03:00:20;16301.56;;;5.49;100.00
5350;BME280;2697;42.144;24.794;2023-12-07T03:02:47;17973.88;;;5.53;100.00
5350;BME280;2697;42.144;24.794;2023-12-07T03:05:13;20977.53;;;5.36;100.00
5350;BME280;2697;42.144;24.794;2023-12-07T03:07:38;20642.19;;;5.33;100.00
5350;BME280;2697;42.144;24.794;2023-12-07T03:10:04;19635.59;;;5.23;100.00
5350;BME280;2697;42.144;24.794;2023-12-07T03:12:29;18965.25;;;5.18;100.00
5350;BME280;2697;42.144;24.794;2023-12-07T03:14:55;18297.38;;;5.19;100.00
5350;BME280;2697;42.144;24.794;2023-12-07T03:17:20;17963.09;;;5.19;100.00
5350;BME280;2697;42.144;24.794;2023-12-07T03:19:45;17625.72;;;5.08;100.00
5350;BME280;2697;42.144;24.794;2023-12-07T03:22:11;16619.22;;;4.92;100.00
5350;BME280;2697;42.144;24.794;2023-12-07T03:24:39;14618.81;;;5.01;100.00
5350;BME280;2697;42.144;24.794;2023-12-07T03:27:05;13951.78;;;5.02;100.00
5350;BME280;2697;42.144;24.794;2023-12-07T03:29:31;14282.53;;;4.91;100.00
5350;BME280;2697;42.144;24.794;2023-12-07T03:31:57;14615.69;;;4.89;100.00
5350;BME280;2697;42.144;24.794;2023-12-07T03:34:23;14949.91;;;4.91;100.00
5350;BME280;2697;42.144;24.794;2023-12-07T03:36:49;15615.97;;;4.85;100.00
5350;BME280;2697;42.144;24.794;2023-12-07T03:39:15;15615.97;;;4.85;100.00
5350;BME280;2697;42.144;24.794;2023-12-07T03:41:41;15614.84;;;4.81;100.00
5350;BME280;2697;42.144;24.794;2023-12-07T03:44:07;14615.56;;;4.88;100.00
5350;BME280;2697;42.144;24.794;2023-12-07T03:46:32;13946.16;;;4.79;100.00
5350;BME280;2697;42.144;24.794;2023-12-07T03:48:57;12944.81;;;4.76;100.00
5350;BME280;2697;42.144;24.794;2023-12-07T03:51:26;12609.91;;;4.69;100.00
5350;BME280;2697;42.144;24.794;2023-12-07T03:53:51;11940.78;;;4.58;100.00
5350;BME280;2697;42.144;24.794;2023-12-07T03:56:27;11273.28;;;4.53;100.00
5350;BME280;2697;42.144;24.794;2023-12-07T03:58:53;10938.72;;;4.46;100.00
5350;BME280;2697;42.144;24.794;2023-12-07T04:01:26;11269.28;;;4.33;100.00
5350;BME280;2697;42.144;24.794;2023-12-07T04:03:53;11268.38;;;4.28;100.00
5350;BME280;2697;42.144;24.794;2023-12-07T04:06:20;11600.69;;;4.25;100.00
5350;BME280;2697;42.144;24.794;2023-12-07T04:08:45;10938.63;;;4.45;100.00
5350;BME280;2697;42.144;24.794;2023-12-07T04:11:12;11605.00;;;4.46;100.00
5350;BME280;2697;42.144;24.794;2023-12-07T04:13:37;12936.66;;;4.40;100.00
5350;BME280;2697;42.144;24.794;2023-12-07T04:16:03;13272.31;;;4.50;100.00
5350;BME280;2697;42.144;24.794;2023-12-07T04:18:29;14272.31;;;4.50;100.00
5350;BME280;2697;42.144;24.794;2023-12-07T04:20:54;14939.38;;;4.50;100.00
5350;BME280;2697;42.144;24.794;2023-12-07T04:23:19;14942.03;;;4.61;100.00
5350;BME280;2697;42.144;24.794;2023-12-07T04:25:45;15940.09;;;4.51;100.00
5350;BME280;2697;42.144;24.794;2023-12-07T04:28:10;15608.88;;;4.60;100.00
5350;BME280;2697;42.144;24.794;2023-12-07T04:30:35;15610.28;;;4.65;100.00
5350;BME280;2697;42.144;24.794;2023-12-07T04:33:01;15609.84;;;4.63;100.00
5350;BME280;2697;42.144;24.794;2023-12-07T04:35:26;15276.13;;;4.63;100.00
5350;BME280;2697;42.144;24.794;2023-12-07T04:37:53;15605.97;;;4.49;100.00
5350;BME280;2697;42.144;24.794;2023-12-07T04:40:19;14942.16;;;4.61;100.00
5350;BME280;2697;42.144;24.794;2023-12-07T04:42:44;15272.19;;;4.48;100.00
5350;BME280;2697;42.144;24.794;2023-12-07T04:45:10;14269.13;;;4.37;100.00
5350;BME280;2697;42.144;24.794;2023-12-07T04:47:35;12938.63;;;4.49;100.00
5350;BME280;2697;42.144;24.794;2023-12-07T04:50:00;11608.38;;;4.62;100.00
5350;BME280;2697;42.144;24.794;2023-12-07T04:52:26;11937.13;;;4.41;100.00
5350;BME280;2697;42.144;24.794;2023-12-07T04:54:51;11936.78;;;4.39;100.00
5350;BME280;2697;42.144;24.794;2023-12-07T04:57:16;11604.16;;;4.42;100.00
5350;BME280;2697;42.144;24.794;2023-12-07T04:59:42;11606.69;;;4.54;100.00
5350;BME280;2697;42.144;24.794;2023-12-07T05:02:15;11605.84;;;4.50;100.00
5350;BME280;2697;42.144;24.794;2023-12-07T05:04:40;11603.84;;;4.40;100.00
5350;BME280;2697;42.144;24.794;2023-12-07T05:07:06;11934.72;;;4.29;100.00
5350;BME280;2697;42.144;24.794;2023-12-07T05:09:31;12597.59;;;4.14;100.00
5350;BME280;2697;42.144;24.794;2023-12-07T05:11:57;12928.13;;;4.03;100.00
5350;BME280;2697;42.144;24.794;2023-12-07T05:14:23;12265.63;;;4.19;100.00
5350;BME280;2697;42.144;24.794;2023-12-07T05:16:48;12264.09;;;4.12;100.00
5350;BME280;2697;42.144;24.794;2023-12-07T05:19:20;11928.69;;;4.01;100.00
5350;BME280;2697;42.144;24.794;2023-12-07T05:21:46;11264.16;;;4.08;100.00
5350;BME280;2697;42.144;24.794;2023-12-07T05:24:12;11929.31;;;4.04;100.00
5350;BME280;2697;42.144;24.794;2023-12-07T05:26:38;12592.94;;;3.93;100.00
5350;BME280;2697;42.144;24.794;2023-12-07T05:29:03;12594.66;;;4.01;100.00
5350;BME280;2697;42.144;24.794;2023-12-07T05:31:29;12596.91;;;4.11;100.00
5350;BME280;2697;42.144;24.794;2023-12-07T05:33:55;13930.91;;;4.17;100.00
5350;BME280;2697;42.144;24.794;2023-12-07T05:36:20;15264.84;;;4.20;100.00
5350;BME280;2697;42.144;24.794;2023-12-07T05:38:46;16263.84;;;4.16;100.00
5350;BME280;2697;42.144;24.794;2023-12-07T05:41:11;16931.63;;;4.19;100.00
5350;BME280;2697;42.144;24.794;2023-12-07T05:43:40;17267.25;;;4.26;100.00
5350;BME280;2697;42.144;24.794;2023-12-07T05:46:07;17599.28;;;4.21;100.00
5350;BME280;2697;42.144;24.794;2023-12-07T05:48:32;16935.81;;;4.34;100.00
5350;BME280;2697;42.144;24.794;2023-12-07T05:50:57;16934.03;;;4.27;100.00
5350;BME280;2697;42.144;24.794;2023-12-07T05:53:23;15933.13;;;4.26;100.00
5350;BME280;2697;42.144;24.794;2023-12-07T05:55:49;14602.63;;;4.38;100.00
5350;BME280;2697;42.144;24.794;2023-12-07T05:58:15;13935.91;;;4.38;100.00
5350;BME280;2697;42.144;24.794;2023-12-07T06:00:42;12604.75;;;4.46;100.00
5350;BME280;2697;42.144;24.794;2023-12-07T06:03:09;11936.91;;;4.40;100.00
5350;BME280;2697;42.144;24.794;2023-12-07T06:05:37;11270.81;;;4.41;100.00
5350;BME280;2697;42.144;24.794;2023-12-07T06:08:02;10937.22;;;4.38;100.00
5350;BME280;2697;42.144;24.794;2023-12-07T06:10:29;9276.44;;;4.63;100.00
5350;BME280;2697;42.144;24.794;2023-12-07T06:12:54;8612.06;;;4.74;100.00
5350;BME280;2697;42.144;24.794;2023-12-07T06:15:22;8281.56;;;4.91;100.00
5350;BME280;2697;42.144;24.794;2023-12-07T06:17:47;8282.81;;;4.99;100.00
5350;BME280;2697;42.144;24.794;2023-12-07T06:20:12;7952.06;;;5.15;100.00
5350;BME280;2697;42.144;24.794;2023-12-07T06:22:38;8286.72;;;5.24;100.00
5350;BME280;2697;42.144;24.794;2023-12-07T06:25:04;8951.91;;;5.15;100.00
5350;BME280;2697;42.144;24.794;2023-12-07T06:27:29;8619.41;;;5.20;100.00
5350;BME280;2697;42.144;24.794;2023-12-07T06:29:55;9281.78;;;4.95;100.00
5350;BME280;2697;42.144;24.794;2023-12-07T06:32:20;8947.38;;;4.88;100.00
5350;BME280;2697;42.144;24.794;2023-12-07T06:34:45;8946.22;;;4.80;100.00
5350;BME280;2697;42.144;24.794;2023-12-07T06:37:11;9272.91;;;4.42;100.00
5350;BME280;2697;42.144;24.794;2023-12-07T06:39:36;8607.94;;;4.48;100.00
5350;BME280;2697;42.144;24.794;2023-12-07T06:42:02;7611.47;;;4.63;100.00
5350;BME280;2697;42.144;24.794;2023-12-07T06:44:28;6615.66;;;4.85;100.00
5350;BME280;2697;42.144;24.794;2023-12-07T06:46:53;6947.09;;;4.74;100.00
5350;BME280;2697;42.144;24.794;2023-12-07T06:49:18;7277.88;;;4.58;100.00
5350;BME280;2697;42.144;24.794;2023-12-07T06:51:44;5618.13;;;4.97;100.00
5350;BME280;2697;42.144;24.794;2023-12-07T06:54:09;4956.09;;;5.35;100.00
5350;BME280;2697;42.144;24.794;2023-12-07T06:56:35;6286.75;;;5.19;100.00
5350;BME280;2697;42.144;24.794;2023-12-07T06:59:01;7282.19;;;4.90;100.00
5350;BME280;2697;42.144;24.794;2023-12-07T07:01:26;7942.59;;;4.51;100.00
5350;BME280;2697;42.144;24.794;2023-12-07T07:03:51;6283.81;;;4.95;100.00
5350;BME280;2697;42.144;24.794;2023-12-07T07:06:17;5289.06;;;5.34;100.00
5350;BME280;2697;42.144;24.794;2023-12-07T07:08:42;6618.72;;;5.10;100.00
5350;BME280;2697;42.144;24.794;2023-12-07T07:11:12;7286.56;;;5.22;100.00
5350;BME280;2697;42.144;24.794;2023-12-07T07:13:39;6955.97;;;5.41;100.00
5350;BME280;2697;42.144;24.794;2023-12-07T07:16:04;7291.78;;;5.60;100.00
5350;BME280;2697;42.144;24.794;2023-12-07T07:18:30;7624.84;;;5.57;100.00
5350;BME280;2697;42.144;24.794;2023-12-07T07:20:55;6959.38;;;5.67;100.00
5350;BME280;2697;42.144;24.794;2023-12-07T07:23:21;5961.38;;;5.86;100.00
5350;BME280;2697;42.144;24.794;2023-12-07T07:25:46;5961.81;;;5.90;100.00
5350;BME280;2697;42.144;24.794;2023-12-07T07:28:11;5297.63;;;6.16;100.00
5350;BME280;2697;42.144;24.794;2023-12-07T07:30:37;5962.91;;;5.99;100.00
5350;BME280;2697;42.144;24.794;2023-12-07T07:33:03;6294.47;;;5.83;100.00
5350;BME280;2697;42.144;24.794;2023-12-07T07:35:29;5298.06;;;6.20;100.00
5350;BME280;2697;42.144;24.794;2023-12-07T07:37:54;5965.09;;;6.18;100.00
5350;BME280;2697;42.144;24.794;2023-12-07T07:40:20;5634.13;;;6.42;100.00
5350;BME280;2697;42.144;24.794;2023-12-07T07:42:45;6302.25;;;6.47;100.00
5350;BME280;2697;42.144;24.794;2023-12-07T07:45:11;6639.03;;;6.71;100.00
5350;BME280;2697;42.144;24.794;2023-12-07T07:47:36;9651.00;;;7.00;100.00
5350;BME280;2697;42.144;24.794;2023-12-07T07:50:02;15680.88;;;7.23;100.00
5350;BME280;2697;42.144;24.794;2023-12-07T07:52:32;21041.91;;;7.14;100.00
5350;BME280;2697;42.144;24.794;2023-12-07T07:54:57;22044.72;;;7.04;100.00
5350;BME280;2697;42.144;24.794;2023-12-07T07:57:23;23401.13;;;7.40;100.00
5350;BME280;2697;42.144;24.794;2023-12-07T07:59:48;25744.34;;;7.22;100.00
5350;BME280;2697;42.144;24.794;2023-12-07T08:02:14;21728.25;;;7.55;100.00
5350;BME280;2697;42.144;24.794;2023-12-07T08:04:39;21739.06;;;7.84;100.00
5350;BME280;2697;42.144;24.794;2023-12-07T08:07:04;23767.97;;;8.16;100.00
5350;BME280;2697;42.144;24.794;2023-12-07T08:09:30;29161.81;;;8.37;100.00
5350;BME280;2697;42.144;24.794;2023-12-07T08:11:55;38224.16;;;7.71;100.00
5350;BME280;2697;42.144;24.794;2023-12-07T08:14:21;36213.69;;;7.92;100.00
5350;BME280;2697;42.144;24.794;2023-12-07T08:16:46;41923.69;;;7.55;100.00
5350;BME280;2697;42.144;24.794;2023-12-07T08:19:12;38896.03;;;7.67;100.00
5350;BME280;2697;42.144;24.794;2023-12-07T08:21:38;42914.56;;;7.25;100.00
5350;BME280;2697;42.144;24.794;2023-12-07T08:24:04;44568.69;;;6.80;100.00
5350;BME280;2697;42.144;24.794;2023-12-07T08:26:30;35153.66;;;7.10;100.00
5350;BME280;2697;42.144;24.794;2023-12-07T08:28:56;37502.78;;;6.97;100.00
5350;BME280;2697;42.144;24.794;2023-12-07T08:31:21;34822.13;;;7.19;100.00
5350;BME280;2697;42.144;24.794;2023-12-07T08:33:50;33843.13;;;7.72;100.00
5350;BME280;2697;42.144;24.794;2023-12-07T08:36:15;41919.75;;;7.49;100.00
5350;BME280;2697;42.144;24.794;2023-12-07T08:38:41;40919.84;;;7.67;100.00
5350;BME280;2697;42.144;24.794;2023-12-07T08:41:07;42603.41;;;7.61;100.00
5350;BME280;2697;42.144;24.794;2023-12-07T08:43:32;42235.53;;;7.19;100.00
5350;BME280;2697;42.144;24.794;2023-12-07T08:45:58;37889.22;;;7.75;100.00
5350;BME280;2697;42.144;24.794;2023-12-07T08:48:23;44636.13;;;7.70;100.00
5350;BME280;2697;42.144;24.794;2023-12-07T08:50:48;45323.34;;;7.86;100.00
5350;BME280;2697;42.144;24.794;2023-12-07T08:53:14;52520.84;;;8.94;100.00
5350;BME280;2697;42.144;24.794;2023-12-07T08:55:39;63442.91;;;9.46;100.00
5350;BME280;2697;42.144;24.794;2023-12-07T08:58:05;79053.63;;;8.88;100.00
5350;BME280;2697;42.144;24.794;2023-12-07T09:00:31;76057.25;;;9.47;100.00
5350;BME280;2697;42.144;24.794;2023-12-07T09:02:57;105188.16;;;9.49;100.00
5350;BME280;2697;42.144;24.794;2023-12-07T09:05:22;105894.91;;;9.59;100.00
5350;BME280;2697;42.144;24.794;2023-12-07T09:07:48;104234.13;;;9.93;100.00
5350;BME280;2697;42.144;24.794;2023-12-07T09:10:13;118637.38;;;9.56;100.00
5350;BME280;2697;42.144;24.794;2023-12-07T09:12:39;100866.38;;;10.36;100.00
5350;BME280;2697;42.144;24.794;2023-12-07T09:15:05;122911.75;;;10.20;100.00
5350;BME280;2697;42.144;24.794;2023-12-07T09:17:32;118127.16;;;10.47;100.00
5350;BME280;2697;42.144;24.794;2023-12-07T09:19:58;120620.34;;;10.84;100.00
5350;BME280;2697;42.144;24.794;2023-12-07T09:22:23;147131.59;;;10.41;100.00
5350;BME280;2697;42.144;24.794;2023-12-07T09:24:48;135965.63;;;9.72;100.00
5350;BME280;2697;42.144;24.794;2023-12-07T09:27:14;121184.03;;;10.20;100.00
5350;BME280;2697;42.144;24.794;2023-12-07T09:29:39;110184.91;;;10.46;100.00
5350;BME280;2697;42.144;24.794;2023-12-07T09:32:06;130270.88;;;10.62;100.00
5350;BME280;2697;42.144;24.794;2023-12-07T09:34:32;146088.50;;;10.95;100.00
5350;BME280;2697;42.144;24.794;2023-12-07T09:37:09;141338.72;;;10.44;100.00
5350;BME280;2697;42.144;24.794;2023-12-07T09:39:35;146445.28;;;9.99;100.00
5350;BME280;2697;42.144;24.794;2023-12-07T09:42:01;115714.75;;;10.50;100.00
5350;BME280;2697;42.144;24.794;2023-12-07T09:44:27;128672.78;;;9.63;100.00
5350;BME280;2697;42.144;24.794;2023-12-07T09:46:52;129026.41;;;9.66;100.00
5350;BME280;2697;42.144;24.794;2023-12-07T09:49:18;121848.66;;;10.07;100.00
5350;BME280;2697;42.144;24.794;2023-12-07T09:51:44;136779.53;;;10.25;100.00
5350;BME280;2697;42.144;24.794;2023-12-07T09:54:11;108977.69;;;9.51;100.00
5350;BME280;2697;42.144;24.794;2023-12-07T09:56:37;100795.53;;;9.94;100.00
5350;BME280;2697;42.144;24.794;2023-12-07T09:59:03;113907.16;;;10.08;100.00
5350;BME280;2697;42.144;24.794;2023-12-07T10:01:29;153041.84;;;10.31;100.00
5350;BME280;2697;42.144;24.794;2023-12-07T10:04:23;155303.16;;;10.61;100.00
5350;BME280;2697;42.144;24.794;2023-12-07T10:06:51;155367.66;;;10.86;100.00
5350;BME280;2697;42.144;24.794;2023-12-07T10:09:18;155308.44;;;10.63;100.00
5350;BME280;2697;42.144;24.794;2023-12-07T10:11:49;155383.50;;;10.92;100.00
5350;BME280;2697;42.144;24.794;2023-12-07T10:14:15;155396.63;;;10.97;100.00
5350;BME280;2697;42.144;24.794;2023-12-07T10:16:54;155557.38;;;11.59;100.00
5350;BME280;2697;42.144;24.794;2023-12-07T10:19:22;155417.72;;;11.05;100.00
5350;BME280;2697;42.144;24.794;2023-12-07T10:21:49;155571.91;;;11.65;100.00
5350;BME280;2697;42.144;24.794;2023-12-07T10:24:21;155556.06;;;11.59;100.00
5350;BME280;2697;42.144;24.794;2023-12-07T10:26:48;155487.53;;;11.32;100.00
5350;BME280;2697;42.144;24.794;2023-12-07T10:29:14;155504.69;;;11.39;100.00
5350;BME280;2697;42.144;24.794;2023-12-07T10:31:39;155558.69;;;11.60;100.00
5350;BME280;2697;42.144;24.794;2023-12-07T10:34:05;155434.84;;;11.12;100.00
5350;BME280;2697;42.144;24.794;2023-12-07T10:36:31;155541.56;;;11.53;100.00
5350;BME280;2697;42.144;24.794;2023-12-07T10:38:58;155593.00;;;11.73;100.00
5350;BME280;2697;42.144;24.794;2023-12-07T10:41:24;155513.88;;;11.42;100.00
5350;BME280;2697;42.144;24.794;2023-12-07T10:44:00;155615.41;;;11.82;100.00
5350;BME280;2697;42.144;24.794;2023-12-07T10:46:27;155687.91;;;12.10;100.00
5350;BME280;2697;42.144;24.794;2023-12-07T10:49:02;155627.28;;;11.86;100.00
5350;BME280;2697;42.144;24.794;2023-12-07T10:51:41;155575.84;;;11.66;100.00
5350;BME280;2697;42.144;24.794;2023-12-07T10:54:10;155644.44;;;11.93;100.00
5350;BME280;2697;42.144;24.794;2023-12-07T10:56:43;155604.84;;;11.78;100.00
5350;BME280;2697;42.144;24.794;2023-12-07T10:59:10;155507.31;;;11.40;100.00
5350;BME280;2697;42.144;24.794;2023-12-07T11:01:40;155620.72;;;11.84;100.00
5350;BME280;2697;42.144;24.794;2023-12-07T11:04:06;155600.88;;;11.76;100.00
5350;BME280;2697;42.144;24.794;2023-12-07T11:06:35;155556.06;;;11.59;100.00
5350;BME280;2697;42.144;24.794;2023-12-07T11:09:04;155595.63;;;11.74;100.00
5350;BME280;2697;42.144;24.794;2023-12-07T11:11:36;155672.13;;;12.04;100.00
5350;BME280;2697;42.144;24.794;2023-12-07T11:14:09;155686.59;;;12.09;100.00
5350;BME280;2697;42.144;24.794;2023-12-07T11:16:40;155697.16;;;12.13;100.00
5350;BME280;2697;42.144;24.794;2023-12-07T11:22:00;155591.69;;;11.73;100.00
5350;BME280;2697;42.144;24.794;2023-12-07T11:24:26;155666.84;;;12.02;100.00
5350;BME280;2697;42.144;24.794;2023-12-07T11:26:52;155473.09;;;11.27;100.00
5350;BME280;2697;42.144;24.794;2023-12-07T11:29:24;155494.13;;;11.35;100.00
5350;BME280;2697;42.144;24.794;2023-12-07T11:31:50;155639.13;;;11.91;100.00
5350;BME280;2697;42.144;24.794;2023-12-07T11:34:35;155640.50;;;11.91;100.00
5350;BME280;2697;42.144;24.794;2023-12-07T11:37:05;155629.91;;;11.87;100.00
5350;BME280;2697;42.144;24.794;2023-12-07T11:39:38;155618.09;;;11.83;100.00
5350;BME280;2697;42.144;24.794;2023-12-07T11:42:15;155477.03;;;11.28;100.00
5350;BME280;2697;42.144;24.794;2023-12-07T11:44:42;155438.81;;;11.13;100.00
5350;BME280;2697;42.144;24.794;2023-12-07T11:47:10;155465.13;;;11.24;100.00
5350;BME280;2697;42.144;24.794;2023-12-07T11:49:36;155553.44;;;11.58;100.00
5350;BME280;2697;42.144;24.794;2023-12-07T11:52:15;155498.09;;;11.36;100.00
5350;BME280;2697;42.144;24.794;2023-12-07T11:54:43;155531.03;;;11.49;100.00
5350;BME280;2697;42.144;24.794;2023-12-07T11:57:09;155639.13;;;11.91;100.00
5350;BME280;2697;42.144;24.794;2023-12-07T11:59:34;155527.09;;;11.48;100.00
5350;BME280;2697;42.144;24.794;2023-12-07T12:02:00;155498.09;;;11.36;100.00
5350;BME280;2697;42.144;24.794;2023-12-07T12:04:28;155596.94;;;11.75;100.00
5350;BME280;2697;42.144;24.794;2023-12-07T12:06:54;155470.41;;;11.26;100.00
5350;BME280;2697;42.144;24.794;2023-12-07T12:09:19;155502.06;;;11.38;100.00
5350;BME280;2697;42.144;24.794;2023-12-07T12:11:45;155690.59;;;12.11;100.00
5350;BME280;2697;42.144;24.794;2023-12-07T12:14:15;155759.09;;;12.37;100.00
5350;BME280;2697;42.144;24.794;2023-12-07T12:16:50;155735.38;;;12.28;100.00
5350;BME280;2697;42.144;24.794;2023-12-07T12:19:16;155662.84;;;12.00;100.00
5350;BME280;2697;42.144;24.794;2023-12-07T12:21:41;155736.72;;;12.29;100.00
5350;BME280;2697;42.144;24.794;2023-12-07T12:24:09;155802.63;;;12.54;100.00
5350;BME280;2697;42.144;24.794;2023-12-07T12:26:35;155718.25;;;12.21;100.00
5350;BME280;2697;42.144;24.794;2023-12-07T12:29:05;155753.84;;;12.35;100.00
5350;BME280;2697;42.144;24.794;2023-12-07T12:31:31;155685.28;;;12.09;100.00
5350;BME280;2697;42.144;24.794;2023-12-07T12:33:56;155562.66;;;11.61;100.00
5350;BME280;2697;42.144;24.794;2023-12-07T12:36:22;155562.66;;;11.61;100.00
5350;BME280;2697;42.144;24.794;2023-12-07T12:38:49;155470.41;;;11.26;100.00
5350;BME280;2697;42.144;24.794;2023-12-07T12:41:18;155480.97;;;11.30;100.00
5350;BME280;2697;42.144;24.794;2023-12-07T12:43:44;155531.03;;;11.49;100.00
5350;BME280;2697;42.144;24.794;2023-12-07T12:46:10;155528.41;;;11.48;100.00
5350;BME280;2697;42.144;24.794;2023-12-07T12:48:37;155620.72;;;11.84;100.00
5350;BME280;2697;42.144;24.794;2023-12-07T12:51:10;155591.69;;;11.73;100.00
5350;BME280;2697;42.144;24.794;2023-12-07T12:53:43;155491.47;;;11.34;100.00
5350;BME280;2697;42.144;24.794;2023-12-07T12:56:10;155445.38;;;11.16;100.00
5350;BME280;2697;42.144;24.794;2023-12-07T12:58:36;155499.44;;;11.37;100.00
5350;BME280;2697;42.144;24.794;2023-12-07T13:01:02;155457.25;;;11.21;100.00
5350;BME280;2697;42.144;24.794;2023-12-07T13:03:28;155523.16;;;11.46;100.00
5350;BME280;2697;42.144;24.794;2023-12-07T13:05:54;155376.91;;;10.90;100.00
5350;BME280;2697;42.144;24.794;2023-12-07T13:08:19;155320.25;;;10.68;100.00